createdAt,value
2022-08-25T00:00:23.508Z,63.32
2022-08-25T00:01:30.020Z,63.69
2022-08-25T00:02:34.197Z,64.19
2022-08-25T00:03:39.572Z,64.06
2022-08-25T00:04:43.078Z,63.58
2022-08-25T00:05:46.739Z,64.00
2022-08-25T00:06:50.833Z,63.71
2022-08-25T00:07:53.123Z,63.50
2022-08-25T00:08:55.534Z,64.35
2022-08-25T00:09:57.868Z,64.75
2022-08-25T00:11:03.574Z,64.45
2022-08-25T00:12:07.365Z,65.46
2022-08-25T00:13:10.321Z,66.09
2022-08-25T00:14:16.266Z,66.01
2022-08-25T00:15:18.730Z,66.27
2022-08-25T00:16:23.570Z,66.98
2022-08-25T00:17:25.865Z,67.51
2022-08-25T00:18:28.365Z,67.51
2022-08-25T00:19:34.215Z,68.25
2022-08-25T00:20:37.528Z,68.07
2022-08-25T00:21:42.762Z,68.47
2022-08-25T00:22:45.198Z,68.81
2022-08-25T00:23:47.950Z,68.39
2022-08-25T00:24:50.293Z,68.32
2022-08-25T00:25:52.498Z,68.06
2022-08-25T00:26:57.122Z,68.30
2022-08-25T00:27:59.567Z,68.91
2022-08-25T00:29:02.269Z,68.65
2022-08-25T00:30:05.978Z,68.78
2022-08-25T00:31:13.944Z,68.99
2022-08-25T00:32:16.696Z,69.61
2022-08-25T00:33:19.161Z,69.62
2022-08-25T00:34:24.889Z,68.12
2022-08-25T00:35:27.270Z,68.96
2022-08-25T00:36:30.398Z,68.20
2022-08-25T00:37:32.900Z,68.23
2022-08-25T00:38:35.881Z,68.99
2022-08-25T00:39:39.995Z,67.76
2022-08-25T00:40:43.246Z,67.21
2022-08-25T00:41:46.019Z,68.42
2022-08-25T00:42:48.278Z,68.64
2022-08-25T00:43:57.233Z,67.96
2022-08-25T00:45:00.615Z,68.23
2022-08-25T00:46:03.863Z,66.68
2022-08-25T00:47:06.752Z,65.79
2022-08-25T00:48:08.948Z,65.02
2022-08-25T00:49:27.262Z,65.06
2022-08-25T00:50:32.662Z,65.86
2022-08-25T00:51:46.065Z,65.20
2022-08-25T00:52:51.763Z,65.04
2022-08-25T00:53:54.470Z,64.98
2022-08-25T00:55:05.747Z,65.17
2022-08-25T00:56:05.084Z,64.66
2022-08-25T00:57:10.186Z,65.13
2022-08-25T00:58:22.404Z,65.26
2022-08-25T00:59:25.994Z,65.33
2022-08-25T01:00:38.370Z,65.26
2022-08-25T01:01:40.886Z,66.05
2022-08-25T01:02:43.431Z,65.97
2022-08-25T01:03:45.895Z,66.60
2022-08-25T01:04:49.304Z,66.45
2022-08-25T01:05:52.986Z,65.83
2022-08-25T01:06:56.948Z,65.40
2022-08-25T01:08:00.632Z,65.44
2022-08-25T01:09:04.155Z,65.54
2022-08-25T01:10:08.575Z,65.44
2022-08-25T01:11:11.460Z,65.91
2022-08-25T01:12:15.848Z,65.58
2022-08-25T01:13:27.948Z,66.37
2022-08-25T01:14:31.974Z,67.37
2022-08-25T01:15:34.520Z,67.83
2022-08-25T01:16:39.838Z,68.13
2022-08-25T01:17:51.465Z,68.71
2022-08-25T01:18:56.705Z,68.12
2022-08-25T01:19:59.239Z,68.04
2022-08-25T01:21:01.618Z,67.83
2022-08-25T01:22:04.752Z,67.79
2022-08-25T01:23:07.151Z,67.61
2022-08-25T01:24:12.939Z,67.14
2022-08-25T01:25:44.545Z,67.53
2022-08-25T01:26:47.304Z,67.80
2022-08-25T01:27:50.601Z,67.79
2022-08-25T01:28:54.653Z,68.13
2022-08-25T01:29:56.947Z,68.57
2022-08-25T01:30:59.414Z,68.20
2022-08-25T01:32:07.412Z,68.94
2022-08-25T01:33:11.526Z,69.13
2022-08-25T01:34:14.670Z,69.24
2022-08-25T01:35:17.249Z,69.71
2022-08-25T01:36:22.205Z,69.95
2022-08-25T01:37:24.261Z,69.82
2022-08-25T01:38:26.416Z,69.26
2022-08-25T01:39:30.889Z,68.19
2022-08-25T01:40:35.385Z,67.95
2022-08-25T01:42:04.306Z,67.35
2022-08-25T01:43:12.901Z,66.89
2022-08-25T01:44:17.085Z,66.26
2022-08-25T01:45:20.454Z,67.01
2022-08-25T01:46:23.655Z,67.35
2022-08-25T01:47:26.424Z,67.74
2022-08-25T01:48:28.617Z,66.82
2022-08-25T01:49:30.942Z,67.48
2022-08-25T01:50:34.703Z,68.35
2022-08-25T01:51:46.787Z,68.68
2022-08-25T01:52:55.356Z,68.69
2022-08-25T01:53:57.869Z,68.65
2022-08-25T01:55:00.133Z,68.89
2022-08-25T01:56:14.822Z,69.00
2022-08-25T01:57:18.688Z,69.07
2022-08-25T01:59:39.717Z,67.96
2022-08-25T02:00:45.282Z,68.31
2022-08-25T02:01:47.724Z,68.93
2022-08-25T02:02:54.089Z,69.39
2022-08-25T02:03:55.557Z,69.60
2022-08-25T02:04:57.716Z,69.65
2022-08-25T02:06:00.457Z,70.27
2022-08-25T02:07:06.296Z,70.30
2022-08-25T02:08:08.687Z,70.37
2022-08-25T02:09:14.811Z,70.62
2022-08-25T02:10:18.113Z,70.63
2022-08-25T02:11:21.069Z,69.83
2022-08-25T02:12:23.336Z,70.16
2022-08-25T02:13:26.692Z,70.46
2022-08-25T02:14:30.578Z,70.86
2022-08-25T02:15:33.281Z,70.58
2022-08-25T02:16:38.144Z,71.20
2022-08-25T02:17:40.523Z,71.64
2022-08-25T02:18:44.749Z,71.39
2022-08-25T02:19:47.260Z,71.25
2022-08-25T02:20:49.697Z,71.02
2022-08-25T02:21:52.366Z,70.20
2022-08-25T02:22:57.251Z,70.18
2022-08-25T02:23:59.704Z,70.26
2022-08-25T02:25:03.970Z,70.15
2022-08-25T02:26:06.886Z,70.28
2022-08-25T02:27:09.305Z,70.00
2022-08-25T02:28:11.570Z,69.93
2022-08-25T02:29:14.013Z,69.32
2022-08-25T02:30:17.631Z,69.67
2022-08-25T02:31:22.552Z,69.25
2022-08-25T02:32:24.742Z,68.82
2022-08-25T02:33:26.903Z,69.90
2022-08-25T02:34:29.087Z,70.25
2022-08-25T02:35:31.465Z,69.79
2022-08-25T02:36:34.588Z,70.22
2022-08-25T02:37:42.139Z,70.35
2022-08-25T02:38:45.066Z,69.87
2022-08-25T02:39:47.624Z,68.79
2022-08-25T02:40:50.696Z,70.30
2022-08-25T02:41:53.286Z,70.47
2022-08-25T02:42:56.098Z,71.01
2022-08-25T02:44:00.513Z,71.62
2022-08-25T02:45:04.059Z,71.61
2022-08-25T02:46:07.335Z,71.96
2022-08-25T02:47:11.729Z,72.77
2022-08-25T02:48:14.169Z,72.37
2022-08-25T02:49:16.931Z,72.48
2022-08-25T02:50:20.356Z,73.02
2022-08-25T02:51:24.031Z,72.20
2022-08-25T02:52:26.307Z,72.93
2022-08-25T02:53:29.157Z,73.25
2022-08-25T02:54:31.409Z,72.66
2022-08-25T02:55:33.756Z,73.08
2022-08-25T02:56:37.262Z,72.80
2022-08-25T02:57:40.877Z,71.95
2022-08-25T02:58:46.886Z,72.82
2022-08-25T02:59:49.240Z,71.92
2022-08-25T03:00:52.413Z,73.03
2022-08-25T03:01:55.051Z,73.99
2022-08-25T03:02:58.528Z,74.18
2022-08-25T03:04:01.439Z,72.25
2022-08-25T03:05:04.907Z,74.29
2022-08-25T03:06:08.711Z,74.58
2022-08-25T03:07:14.112Z,74.62
2022-08-25T03:08:20.531Z,74.70
2022-08-25T03:09:26.099Z,74.44
2022-08-25T03:10:28.921Z,73.37
2022-08-25T03:11:31.304Z,74.26
2022-08-25T03:12:33.556Z,73.86
2022-08-25T03:13:36.276Z,72.56
2022-08-25T03:14:39.898Z,72.91
2022-08-25T03:15:49.315Z,72.56
2022-08-25T03:16:51.935Z,72.45
2022-08-25T03:17:55.725Z,73.14
2022-08-25T03:19:00.435Z,72.84
2022-08-25T03:20:05.485Z,72.09
2022-08-25T03:21:10.649Z,73.30
2022-08-25T03:22:13.167Z,73.44
2022-08-25T03:23:15.556Z,73.88
2022-08-25T03:24:18.127Z,74.31
2022-08-25T03:25:24.021Z,74.37
2022-08-25T03:26:26.123Z,75.02
2022-08-25T03:27:29.100Z,75.16
2022-08-25T03:28:31.631Z,75.21
2022-08-25T03:29:33.837Z,75.20
2022-08-25T03:30:36.974Z,74.88
2022-08-25T03:31:39.615Z,75.72
2022-08-25T03:32:42.590Z,75.18
2022-08-25T03:33:45.241Z,75.07
2022-08-25T03:34:47.454Z,74.84
2022-08-25T03:35:49.769Z,74.13
2022-08-25T03:36:54.730Z,74.40
2022-08-25T03:37:58.412Z,74.21
2022-08-25T03:39:01.110Z,74.11
2022-08-25T03:40:09.462Z,74.17
2022-08-25T03:41:19.853Z,74.18
2022-08-25T03:42:22.635Z,74.37
2022-08-25T03:43:24.966Z,74.19
2022-08-25T03:44:28.397Z,74.04
2022-08-25T03:45:32.647Z,73.99
2022-08-25T03:46:42.539Z,74.15
2022-08-25T03:47:49.294Z,74.26
2022-08-25T03:48:52.108Z,74.90
2022-08-25T03:49:54.505Z,74.56
2022-08-25T03:50:56.908Z,74.83
2022-08-25T03:51:59.350Z,75.85
2022-08-25T03:53:02.944Z,76.06
2022-08-25T03:54:06.680Z,76.37
2022-08-25T03:55:11.864Z,76.14
2022-08-25T03:56:15.116Z,76.06
2022-08-25T03:57:17.261Z,76.05
2022-08-25T03:58:19.846Z,76.17
2022-08-25T03:59:25.289Z,76.09
2022-08-25T04:00:29.517Z,76.36
2022-08-25T04:01:32.480Z,76.61
2022-08-25T04:02:35.236Z,76.85
2022-08-25T04:03:37.557Z,77.38
2022-08-25T04:04:39.929Z,77.68
2022-08-25T04:05:42.453Z,77.64
2022-08-25T04:06:44.862Z,77.71
2022-08-25T04:07:47.339Z,76.71
2022-08-25T04:08:49.933Z,74.94
2022-08-25T04:09:53.783Z,75.53
2022-08-25T04:10:56.356Z,76.27
2022-08-25T04:11:59.271Z,76.21
2022-08-25T04:13:01.641Z,76.36
2022-08-25T04:14:04.325Z,75.68
2022-08-25T04:15:08.733Z,75.85
2022-08-25T04:16:16.171Z,75.23
2022-08-25T04:17:18.942Z,75.77
2022-08-25T04:18:21.538Z,75.10
2022-08-25T04:19:24.060Z,75.46
2022-08-25T04:20:26.930Z,75.46
2022-08-25T04:21:29.659Z,73.71
2022-08-25T04:22:32.005Z,73.54
2022-08-25T04:23:38.237Z,73.59
2022-08-25T04:24:40.548Z,74.04
2022-08-25T04:25:43.002Z,73.85
2022-08-25T04:26:49.012Z,73.50
2022-08-25T04:27:51.363Z,73.56
2022-08-25T04:28:55.439Z,71.24
2022-08-25T04:29:57.909Z,71.28
2022-08-25T04:31:02.983Z,70.61
2022-08-25T04:32:05.415Z,70.12
2022-08-25T04:33:07.756Z,70.07
2022-08-25T04:34:28.405Z,69.97
2022-08-25T04:35:14.820Z,70.54
2022-08-25T04:36:18.925Z,70.45
2022-08-25T04:37:21.336Z,70.21
2022-08-25T04:38:23.747Z,69.26
2022-08-25T04:39:26.522Z,68.64
2022-08-25T04:40:29.417Z,68.56
2022-08-25T04:41:32.442Z,68.05
2022-08-25T04:42:35.100Z,68.10
2022-08-25T04:43:39.078Z,67.60
2022-08-25T04:44:41.298Z,67.47
2022-08-25T04:45:43.743Z,67.50
2022-08-25T04:46:46.364Z,67.54
2022-08-25T04:47:54.313Z,67.10
2022-08-25T04:48:55.343Z,66.87
2022-08-25T04:49:57.715Z,66.82
2022-08-25T04:51:09.351Z,67.02
2022-08-25T04:52:14.467Z,66.38
2022-08-25T04:53:16.876Z,66.93
2022-08-25T04:54:19.647Z,66.51
2022-08-25T04:55:22.146Z,66.28
2022-08-25T04:56:26.417Z,66.11
2022-08-25T04:57:29.685Z,66.03
2022-08-25T04:58:32.009Z,65.49
2022-08-25T04:59:34.288Z,65.34
2022-08-25T05:00:38.370Z,65.04
2022-08-25T05:01:42.274Z,64.71
2022-08-25T05:02:44.606Z,64.60
2022-08-25T05:03:49.771Z,63.99
2022-08-25T05:04:54.535Z,63.44
2022-08-25T05:05:57.566Z,63.67
2022-08-25T05:07:01.517Z,63.37
2022-08-25T05:08:05.552Z,63.08
2022-08-25T05:09:08.406Z,62.59
2022-08-25T05:10:12.939Z,62.65
2022-08-25T05:11:15.956Z,62.35
2022-08-25T05:12:19.949Z,62.10
2022-08-25T05:13:23.661Z,61.95
2022-08-25T05:14:27.843Z,61.62
2022-08-25T05:15:32.085Z,61.13
2022-08-25T05:16:34.767Z,60.17
2022-08-25T05:17:37.219Z,59.71
2022-08-25T05:18:39.386Z,59.70
2022-08-25T05:19:42.015Z,60.32
2022-08-25T05:20:44.791Z,60.70
2022-08-25T05:21:47.957Z,60.45
2022-08-25T05:22:50.451Z,59.67
2022-08-25T05:24:00.840Z,59.65
2022-08-25T05:25:03.947Z,58.95
2022-08-25T05:26:15.442Z,58.48
2022-08-25T05:27:17.421Z,58.20
2022-08-25T05:28:20.676Z,57.93
2022-08-25T05:29:22.962Z,57.53
2022-08-25T05:30:25.465Z,57.37
2022-08-25T05:31:28.400Z,57.32
2022-08-25T05:32:30.695Z,57.05
2022-08-25T05:33:33.245Z,56.53
2022-08-25T05:34:35.692Z,55.03
2022-08-25T05:35:38.606Z,53.15
2022-08-25T05:36:40.971Z,52.75
2022-08-25T05:37:43.573Z,53.88
2022-08-25T05:38:46.314Z,53.76
2022-08-25T05:39:48.973Z,53.62
2022-08-25T05:40:59.828Z,54.16
2022-08-25T05:42:02.134Z,52.89
2022-08-25T05:43:04.468Z,53.32
2022-08-25T05:44:06.926Z,52.76
2022-08-25T05:45:10.056Z,53.55
2022-08-25T05:46:16.470Z,53.61
2022-08-25T05:47:19.416Z,53.11
2022-08-25T05:48:22.181Z,52.75
2022-08-25T05:49:24.452Z,52.58
2022-08-25T05:50:27.067Z,52.24
2022-08-25T05:51:29.365Z,52.41
2022-08-25T05:52:31.542Z,51.60
2022-08-25T05:53:34.267Z,53.35
2022-08-25T05:54:36.648Z,54.74
2022-08-25T05:55:42.439Z,54.26
2022-08-25T05:56:48.036Z,53.20
2022-08-25T05:57:50.294Z,52.36
2022-08-25T05:58:53.298Z,52.45
2022-08-25T05:59:55.703Z,52.42
2022-08-25T06:01:00.186Z,51.88
2022-08-25T06:02:02.853Z,51.21
2022-08-25T06:03:06.419Z,50.75
2022-08-25T06:04:08.972Z,51.21
2022-08-25T06:05:14.679Z,50.90
2022-08-25T06:06:18.705Z,51.52
2022-08-25T06:07:21.087Z,50.32
2022-08-25T06:08:24.680Z,50.76
2022-08-25T06:09:26.992Z,49.63
2022-08-25T06:10:29.746Z,50.90
2022-08-25T06:11:31.962Z,51.10
2022-08-25T06:12:34.324Z,49.71
2022-08-25T06:13:37.233Z,48.86
2022-08-25T06:14:40.311Z,49.12
2022-08-25T06:15:42.876Z,49.11
2022-08-25T06:16:47.248Z,48.75
2022-08-25T06:17:52.387Z,48.05
2022-08-25T06:18:54.728Z,48.33
2022-08-25T06:19:59.095Z,48.08
2022-08-25T06:21:13.624Z,47.75
2022-08-25T06:22:15.986Z,48.32
2022-08-25T06:23:18.480Z,47.58
2022-08-25T06:24:21.902Z,47.33
2022-08-25T06:25:26.069Z,47.75
2022-08-25T06:26:29.450Z,47.95
2022-08-25T06:27:31.772Z,47.47
2022-08-25T06:28:33.929Z,47.47
2022-08-25T06:29:36.384Z,47.99
2022-08-25T06:30:40.451Z,49.00
2022-08-25T06:31:42.998Z,48.14
2022-08-25T06:32:46.086Z,49.78
2022-08-25T06:33:49.567Z,49.43
2022-08-25T06:34:53.843Z,48.31
2022-08-25T06:35:56.710Z,47.46
2022-08-25T06:36:59.132Z,46.96
2022-08-25T06:38:02.965Z,46.73
2022-08-25T06:39:06.588Z,45.78
2022-08-25T06:40:10.748Z,45.50
2022-08-25T06:41:14.111Z,45.15
2022-08-25T06:42:16.299Z,45.42
2022-08-25T06:43:20.103Z,46.20
2022-08-25T06:44:23.755Z,46.09
2022-08-25T06:45:27.992Z,45.96
2022-08-25T06:46:36.604Z,45.28
2022-08-25T06:47:37.410Z,44.85
2022-08-25T06:48:40.121Z,44.42
2022-08-25T06:49:43.375Z,44.41
2022-08-25T06:50:46.535Z,44.27
2022-08-25T06:51:49.341Z,46.30
2022-08-25T06:52:51.548Z,45.23
2022-08-25T06:53:53.846Z,43.64
2022-08-25T06:54:56.528Z,43.08
2022-08-25T06:56:01.299Z,43.17
2022-08-25T06:57:04.728Z,42.88
2022-08-25T06:58:10.254Z,43.25
2022-08-25T06:59:11.937Z,43.41
2022-08-25T07:00:15.855Z,44.29
2022-08-25T07:01:21.460Z,44.88
2022-08-25T07:02:24.217Z,44.99
2022-08-25T07:03:26.945Z,44.69
2022-08-25T07:04:29.975Z,43.97
2022-08-25T07:05:43.589Z,43.00
2022-08-25T07:06:37.360Z,42.29
2022-08-25T07:07:43.116Z,42.36
2022-08-25T07:08:46.921Z,41.94
2022-08-25T07:09:49.883Z,41.89
2022-08-25T07:10:52.554Z,42.02
2022-08-25T07:11:55.161Z,41.98
2022-08-25T07:12:57.466Z,42.33
2022-08-25T07:14:02.816Z,42.55
2022-08-25T07:15:21.950Z,42.20
2022-08-25T07:16:13.960Z,41.62
2022-08-25T07:17:16.880Z,41.65
2022-08-25T07:18:21.493Z,41.60
2022-08-25T07:19:25.752Z,41.07
2022-08-25T07:20:28.651Z,41.08
2022-08-25T07:21:35.909Z,41.03
2022-08-25T07:22:39.725Z,41.00
2022-08-25T07:23:43.542Z,41.70
2022-08-25T07:24:46.188Z,41.52
2022-08-25T07:25:55.195Z,41.48
2022-08-25T07:26:57.806Z,41.46
2022-08-25T07:28:00.363Z,41.29
2022-08-25T07:30:26.886Z,41.56
2022-08-25T07:31:29.792Z,41.37
2022-08-25T07:32:32.797Z,41.67
2022-08-25T07:33:35.604Z,41.19
2022-08-25T07:34:38.948Z,42.20
2022-08-25T07:36:56.558Z,41.01
2022-08-25T07:37:59.554Z,41.72
2022-08-25T07:39:04.196Z,41.69
2022-08-25T07:40:21.987Z,43.17
2022-08-25T07:41:26.259Z,42.92
2022-08-25T07:42:28.665Z,43.38
2022-08-25T07:43:31.365Z,42.65
2022-08-25T07:44:33.861Z,41.79
2022-08-25T07:45:49.229Z,41.12
2022-08-25T07:46:43.435Z,41.26
2022-08-25T07:47:46.042Z,41.03
2022-08-25T07:48:53.322Z,40.94
2022-08-25T07:49:54.897Z,41.03
2022-08-25T07:50:57.393Z,40.59
2022-08-25T07:52:05.483Z,40.57
2022-08-25T07:53:06.435Z,40.70
2022-08-25T07:54:11.664Z,40.74
2022-08-25T07:55:18.009Z,41.56
2022-08-25T07:56:18.586Z,41.66
2022-08-25T07:57:21.255Z,42.41
2022-08-25T07:58:25.065Z,41.67
2022-08-25T07:59:29.850Z,41.08
2022-08-25T08:00:33.438Z,40.70
2022-08-25T08:01:39.068Z,41.55
2022-08-25T08:02:45.479Z,42.28
2022-08-25T08:03:51.256Z,42.25
2022-08-25T08:04:53.449Z,42.60
2022-08-25T08:05:55.870Z,42.72
2022-08-25T08:06:58.601Z,42.00
2022-08-25T08:08:01.620Z,41.39
2022-08-25T08:09:03.868Z,40.75
2022-08-25T08:10:37.131Z,40.56
2022-08-25T08:11:24.343Z,39.91
2022-08-25T08:12:27.734Z,38.83
2022-08-25T08:13:30.390Z,37.98
2022-08-25T08:14:33.022Z,38.26
2022-08-25T08:15:39.731Z,38.26
2022-08-25T08:16:42.556Z,38.82
2022-08-25T08:17:46.540Z,39.01
2022-08-25T08:18:52.625Z,38.91
2022-08-25T08:19:55.174Z,38.88
2022-08-25T08:21:00.613Z,38.39
2022-08-25T08:22:04.819Z,38.95
2022-08-25T08:23:07.576Z,38.80
2022-08-25T08:24:25.043Z,39.31
2022-08-25T08:25:18.586Z,38.84
2022-08-25T08:26:20.599Z,38.89
2022-08-25T08:27:23.252Z,39.11
2022-08-25T08:28:25.531Z,39.45
2022-08-25T08:29:28.217Z,39.27
2022-08-25T08:30:31.195Z,39.05
2022-08-25T08:31:33.496Z,38.98
2022-08-25T08:32:59.613Z,39.37
2022-08-25T08:33:40.909Z,39.56
2022-08-25T08:34:43.300Z,39.11
2022-08-25T08:35:47.092Z,38.88
2022-08-25T08:36:49.565Z,39.17
2022-08-25T08:37:53.926Z,39.50
2022-08-25T08:38:56.203Z,39.01
2022-08-25T08:39:58.550Z,38.53
2022-08-25T08:41:13.127Z,38.20
2022-08-25T08:42:42.327Z,38.04
2022-08-25T08:43:50.371Z,38.13
2022-08-25T08:45:17.465Z,38.21
2022-08-25T08:46:22.693Z,38.12
2022-08-25T08:48:04.723Z,37.52
2022-08-25T08:49:12.260Z,36.83
2022-08-25T08:50:39.894Z,36.99
2022-08-25T08:51:45.854Z,36.02
2022-08-25T08:53:01.416Z,36.84
2022-08-25T08:54:16.710Z,37.16
2022-08-25T08:55:35.118Z,36.81
2022-08-25T08:56:45.458Z,36.54
2022-08-25T09:00:09.585Z,36.62
2022-08-25T09:01:21.025Z,36.51
2022-08-25T09:02:38.629Z,36.94
2022-08-25T09:03:40.441Z,36.28
2022-08-25T09:04:50.425Z,36.74
2022-08-25T09:05:55.716Z,36.62
2022-08-25T09:07:02.348Z,36.65
2022-08-25T09:08:11.839Z,36.21
2022-08-25T09:09:19.242Z,36.32
2022-08-25T09:10:27.367Z,35.91
2022-08-25T09:11:53.004Z,35.94
2022-08-25T09:13:11.327Z,35.97
2022-08-25T09:14:33.050Z,36.05
2022-08-25T09:15:52.795Z,36.48
2022-08-25T09:17:20.427Z,34.75
2022-08-25T09:18:40.881Z,34.89
2022-08-25T09:20:18.925Z,33.82
2022-08-25T09:21:26.863Z,34.51
2022-08-25T09:22:38.591Z,35.19
2022-08-25T09:23:48.396Z,34.66
2022-08-25T09:25:12.580Z,34.28
2022-08-25T09:27:41.029Z,33.96
2022-08-25T09:28:53.569Z,34.25
2022-08-25T09:30:05.228Z,34.94
2022-08-25T09:31:26.478Z,35.12
2022-08-25T09:32:31.604Z,34.79
2022-08-25T09:33:35.925Z,34.81
2022-08-25T09:34:39.827Z,34.93
2022-08-25T09:35:42.915Z,33.47
2022-08-25T09:36:46.279Z,32.88
2022-08-25T09:38:11.186Z,32.72
2022-08-25T09:39:14.106Z,31.91
2022-08-25T09:40:17.257Z,31.72
2022-08-25T09:42:49.909Z,31.31
2022-08-25T09:43:54.269Z,31.30
2022-08-25T09:44:57.204Z,32.31
2022-08-25T09:46:03.170Z,31.46
2022-08-25T09:47:24.025Z,30.98
2022-08-25T09:48:29.773Z,30.37
2022-08-25T09:50:00.644Z,30.25
2022-08-25T09:52:32.063Z,29.64
2022-08-25T09:53:34.441Z,30.04
2022-08-25T09:54:46.926Z,30.15
2022-08-25T09:55:43.415Z,30.32
2022-08-25T09:56:52.087Z,30.38
2022-08-25T09:57:56.522Z,30.95
2022-08-25T09:59:21.418Z,30.48
2022-08-25T10:03:11.173Z,30.51
2022-08-25T10:04:18.978Z,29.74
2022-08-25T10:05:23.434Z,31.20
2022-08-25T10:06:31.110Z,30.94
2022-08-25T10:07:36.988Z,31.76
2022-08-25T10:08:46.641Z,32.10
2022-08-25T10:09:55.313Z,31.30
2022-08-25T10:11:01.453Z,31.72
2022-08-25T10:13:44.225Z,32.85
2022-08-25T10:14:47.270Z,31.74
2022-08-25T10:16:20.628Z,32.13
2022-08-25T10:17:27.689Z,32.21
2022-08-25T10:18:29.981Z,32.19
2022-08-25T10:19:32.664Z,30.33
2022-08-25T10:20:35.640Z,30.29
2022-08-25T10:21:42.189Z,30.76
2022-08-25T10:22:48.305Z,29.93
2022-08-25T10:23:52.943Z,29.68
2022-08-25T10:24:56.022Z,29.86
2022-08-25T10:26:04.576Z,29.27
2022-08-25T10:27:18.005Z,29.87
2022-08-25T10:28:32.931Z,30.06
2022-08-25T10:29:58.164Z,29.81
2022-08-25T10:32:38.674Z,28.66
2022-08-25T10:33:56.389Z,28.25
2022-08-25T10:35:01.086Z,28.89
2022-08-25T10:36:12.993Z,28.94
2022-08-25T10:38:50.500Z,29.50
2022-08-25T10:39:59.486Z,29.96
2022-08-25T10:41:39.035Z,29.80
2022-08-25T10:42:44.859Z,30.13
2022-08-25T10:43:56.944Z,30.01
2022-08-25T10:45:04.831Z,29.97
2022-08-25T10:46:13.789Z,29.66
2022-08-25T10:47:53.300Z,30.02
2022-08-25T10:49:14.983Z,30.17
2022-08-25T10:50:33.542Z,30.38
2022-08-25T10:51:42.225Z,30.44
2022-08-25T10:52:51.488Z,30.07
2022-08-25T10:54:15.040Z,30.05
2022-08-25T10:55:21.162Z,30.03
2022-08-25T10:56:28.219Z,30.56
2022-08-25T10:57:43.539Z,30.04
2022-08-25T10:59:01.773Z,29.88
2022-08-25T11:00:08.426Z,29.48
2022-08-25T11:01:36.656Z,29.90
2022-08-25T11:03:13.694Z,30.59
2022-08-25T11:04:25.328Z,30.61
2022-08-25T11:05:56.993Z,30.46
2022-08-25T11:07:21.931Z,30.92
2022-08-25T11:08:45.995Z,30.93
2022-08-25T11:09:51.397Z,30.54
2022-08-25T11:11:15.345Z,29.44
2022-08-25T11:12:24.636Z,29.58
2022-08-25T11:14:55.104Z,28.91
2022-08-25T11:16:18.582Z,28.63
2022-08-25T11:17:28.702Z,29.14
2022-08-25T11:18:32.368Z,29.81
2022-08-25T11:19:41.213Z,29.87
2022-08-25T11:22:19.358Z,30.19
2022-08-25T11:23:25.753Z,30.19
2022-08-25T11:24:48.969Z,30.07
2022-08-25T11:25:53.668Z,30.55
2022-08-25T11:26:57.493Z,30.89
2022-08-25T11:28:24.340Z,30.67
2022-08-25T11:29:30.950Z,30.35
2022-08-25T11:30:34.612Z,29.95
2022-08-25T11:31:40.949Z,30.37
2022-08-25T11:32:50.549Z,30.21
2022-08-25T11:33:55.602Z,30.22
2022-08-25T11:35:00.838Z,30.09
2022-08-25T11:36:07.033Z,30.21
2022-08-25T11:37:23.748Z,30.94
2022-08-25T11:38:49.547Z,30.55
2022-08-25T11:39:55.533Z,30.16
2022-08-25T11:41:14.643Z,30.54
2022-08-25T11:42:26.407Z,31.05
2022-08-25T11:43:35.782Z,31.18
2022-08-25T11:44:55.966Z,31.57
2022-08-25T11:45:59.851Z,31.76
2022-08-25T11:47:22.828Z,31.77
2022-08-25T11:48:29.443Z,31.11
2022-08-25T11:49:54.101Z,30.72
2022-08-25T11:51:11.288Z,30.67
2022-08-25T11:52:34.647Z,31.19
2022-08-25T11:53:41.794Z,31.56
2022-08-25T11:54:46.539Z,31.92
2022-08-25T11:55:51.659Z,31.42
2022-08-25T11:57:02.012Z,31.62
2022-08-25T11:58:33.780Z,31.87
2022-08-25T11:59:56.013Z,32.34
2022-08-25T12:01:01.895Z,32.76
2022-08-25T12:02:04.231Z,32.76
2022-08-25T12:03:30.354Z,32.46
2022-08-25T12:04:44.458Z,32.62
2022-08-25T12:05:52.664Z,32.72
2022-08-25T12:07:11.686Z,32.73
2022-08-25T12:08:19.597Z,33.13
2022-08-25T12:09:24.642Z,33.22
2022-08-25T12:10:56.748Z,33.16
2022-08-25T12:12:02.443Z,33.25
2022-08-25T12:13:26.557Z,33.69
2022-08-25T12:14:34.455Z,33.82
2022-08-25T12:15:43.312Z,33.58
2022-08-25T12:16:58.652Z,33.85
2022-08-25T12:18:16.474Z,33.33
2022-08-25T12:19:40.653Z,33.19
2022-08-25T12:20:58.847Z,33.19
2022-08-25T12:22:04.735Z,33.15
2022-08-25T12:23:10.725Z,32.89
2022-08-25T12:24:15.154Z,32.31
2022-08-25T12:25:26.545Z,32.33
2022-08-25T12:26:48.871Z,31.83
2022-08-25T12:28:09.294Z,32.03
2022-08-25T12:29:21.407Z,31.98
2022-08-25T12:30:47.856Z,31.99
2022-08-25T12:32:05.227Z,32.23
2022-08-25T12:33:34.239Z,31.88
2022-08-25T12:34:50.240Z,31.90
2022-08-25T12:35:56.608Z,31.92
2022-08-25T12:37:06.583Z,31.99
2022-08-25T12:39:25.723Z,31.40
2022-08-25T12:40:40.746Z,32.01
2022-08-25T12:44:37.445Z,32.28
2022-08-25T12:45:46.193Z,32.31
2022-08-25T12:46:54.527Z,32.07
2022-08-25T12:48:00.626Z,32.48
2022-08-25T12:49:34.240Z,33.02
2022-08-25T12:50:43.215Z,33.04
2022-08-25T12:51:54.894Z,32.77
2022-08-25T12:53:23.343Z,32.52
2022-08-25T12:54:29.908Z,32.83
2022-08-25T12:55:33.420Z,32.00
2022-08-25T12:56:39.538Z,32.37
2022-08-25T12:57:51.420Z,32.92
2022-08-25T12:59:15.580Z,32.44
2022-08-25T13:01:43.697Z,32.15
2022-08-25T13:03:06.679Z,32.06
2022-08-25T13:04:23.920Z,32.33
2022-08-25T13:05:48.087Z,32.13
2022-08-25T13:07:13.217Z,32.07
2022-08-25T13:08:26.828Z,31.62
2022-08-25T13:10:05.573Z,31.81
2022-08-25T13:11:17.056Z,31.66
2022-08-25T13:12:23.014Z,32.84
2022-08-25T13:13:57.912Z,32.63
2022-08-25T13:15:01.030Z,33.36
2022-08-25T13:16:07.648Z,32.82
2022-08-25T13:17:11.309Z,32.16
2022-08-25T13:18:32.450Z,32.57
2022-08-25T13:19:36.311Z,32.54
2022-08-25T13:20:40.139Z,32.66
2022-08-25T13:21:44.343Z,32.53
2022-08-25T13:22:55.163Z,32.69
2022-08-25T13:24:01.242Z,33.02
2022-08-25T13:25:04.434Z,32.90
2022-08-25T13:26:10.924Z,32.67
2022-08-25T13:27:25.628Z,32.51
2022-08-25T13:28:31.698Z,33.05
2022-08-25T13:29:40.878Z,33.22
2022-08-25T13:30:44.042Z,32.53
2022-08-25T13:31:59.286Z,32.39
2022-08-25T13:33:20.561Z,32.63
2022-08-25T13:34:34.303Z,32.67
2022-08-25T13:35:32.771Z,32.44
2022-08-25T13:36:50.391Z,32.66
2022-08-25T13:37:49.430Z,32.75
2022-08-25T13:38:52.323Z,32.23
2022-08-25T13:40:15.044Z,32.49
2022-08-25T13:41:23.228Z,32.77
2022-08-25T13:42:28.694Z,32.54
2022-08-25T13:43:32.065Z,33.12
2022-08-25T13:44:37.164Z,33.05
2022-08-25T13:47:12.907Z,32.82
2022-08-25T13:48:21.046Z,32.17
2022-08-25T13:49:26.041Z,32.25
2022-08-25T13:50:36.802Z,32.92
2022-08-25T13:51:43.605Z,33.74
2022-08-25T13:52:55.928Z,33.68
2022-08-25T13:54:06.493Z,34.09
2022-08-25T13:55:10.873Z,33.54
2022-08-25T13:57:22.997Z,33.11
2022-08-25T13:58:39.033Z,33.72
2022-08-25T13:59:40.111Z,33.41
2022-08-25T14:01:56.026Z,32.64
2022-08-25T14:03:00.029Z,32.63
2022-08-25T14:04:23.255Z,32.81
2022-08-25T14:05:38.252Z,32.60
2022-08-25T14:06:41.651Z,32.73
2022-08-25T14:08:15.647Z,32.63
2022-08-25T14:09:03.956Z,32.67
2022-08-25T14:10:14.706Z,32.66
2022-08-25T14:11:32.443Z,32.46
2022-08-25T14:12:44.803Z,33.08
2022-08-25T14:13:51.051Z,32.38
2022-08-25T14:15:02.988Z,32.64
2022-08-25T14:16:15.132Z,32.61
2022-08-25T14:17:36.415Z,32.75
2022-08-25T14:18:30.187Z,32.48
2022-08-25T14:19:33.737Z,32.77
2022-08-25T14:20:41.803Z,33.27
2022-08-25T14:21:46.474Z,33.12
2022-08-25T14:22:58.055Z,32.85
2022-08-25T14:24:00.267Z,33.06
2022-08-25T14:25:02.995Z,32.66
2022-08-25T14:26:07.842Z,33.27
2022-08-25T14:27:11.895Z,34.21
2022-08-25T14:28:18.315Z,33.76
2022-08-25T14:29:21.468Z,33.42
2022-08-25T14:30:28.618Z,33.64
2022-08-25T14:31:36.225Z,33.71
2022-08-25T14:32:38.933Z,33.22
2022-08-25T14:35:09.815Z,33.51
2022-08-25T14:36:07.297Z,33.25
2022-08-25T14:37:13.101Z,33.08
2022-08-25T14:38:18.640Z,33.44
2022-08-25T14:39:23.060Z,33.84
2022-08-25T14:40:28.876Z,33.90
2022-08-25T14:41:31.130Z,33.76
2022-08-25T14:42:33.421Z,33.80
2022-08-25T14:43:36.156Z,33.58
2022-08-25T14:44:38.787Z,33.12
2022-08-25T14:45:44.335Z,33.17
2022-08-25T14:46:57.442Z,33.16
2022-08-25T14:48:10.244Z,33.16
2022-08-25T14:49:15.206Z,33.77
2022-08-25T14:50:20.145Z,33.01
2022-08-25T14:51:24.426Z,33.73